Time;durP1;ratioP1;P1;durP2;ratioP2;P2;SDS_P1;SDS_P2;PMS_P1;PMS_P2;Temp;Humidity;BMP_temperature;BMP_pressure;BME280_temperature;BME280_humidity;BME280_pressure;Samples;Min_cycle;Max_cycle;Signal;HPM_P1;HPM_P2
2022/02/26 00:01:13;;;;;;;19.93;2.70;;;2.70;99.90;;;;;;5052386;28;37989;-76
2022/02/26 00:03:39;;;;;;;18.60;2.83;;;2.60;99.90;;;;;;5054357;28;38269;-77
2022/02/26 00:06:06;;;;;;;18.30;2.50;;;2.50;99.90;;;;;;5055368;28;38470;-76
2022/02/26 00:08:32;;;;;;;20.57;2.90;;;2.40;99.90;;;;;;5057640;28;38548;-76
2022/02/26 00:10:58;;;;;;;12.63;2.20;;;2.40;99.90;;;;;;5060144;28;38714;-76
2022/02/26 00:13:25;;;;;;;18.30;3.57;;;2.30;99.90;;;;;;5059050;28;37825;-75
2022/02/26 00:15:53;;;;;;;18.17;2.60;;;2.20;99.90;;;;;;5054995;28;38730;-76
2022/02/26 00:18:20;;;;;;;25.07;3.17;;;2.10;99.90;;;;;;5071778;28;39091;-76
2022/02/26 00:20:49;;;;;;;20.20;3.10;;;2.10;99.90;;;;;;5057866;28;36902;-76
2022/02/26 00:23:15;;;;;;;16.10;2.70;;;2.10;99.90;;;;;;5055920;28;36758;-76
2022/02/26 00:25:41;;;;;;;17.20;3.50;;;2.00;99.90;;;;;;5037110;28;39245;-76
2022/02/26 00:28:08;;;;;;;30.10;3.20;;;2.00;99.90;;;;;;5045041;28;38395;-75
2022/02/26 00:30:37;;;;;;;14.47;3.13;;;2.00;99.90;;;;;;5061781;28;39250;-76
2022/02/26 00:33:03;;;;;;;20.33;3.17;;;1.90;99.90;;;;;;5056706;28;38639;-75
2022/02/26 00:35:29;;;;;;;20.20;3.40;;;1.90;99.90;;;;;;5058757;28;38700;-76
2022/02/26 00:37:55;;;;;;;19.80;3.33;;;1.90;99.90;;;;;;5040466;28;37527;-76
2022/02/26 00:40:24;;;;;;;22.90;3.73;;;1.90;99.90;;;;;;5061611;28;37957;-75
2022/02/26 00:42:53;;;;;;;15.77;3.60;;;2.10;99.90;;;;;;5065222;28;37832;-75
2022/02/26 00:45:19;;;;;;;18.57;3.60;;;2.20;99.90;;;;;;5057503;28;39433;-75
2022/02/26 00:47:45;;;;;;;28.80;3.40;;;2.20;99.90;;;;;;5060343;28;39213;-76
2022/02/26 00:50:11;;;;;;;17.80;3.90;;;2.00;99.90;;;;;;5053733;28;38165;-76
2022/02/26 00:52:40;;;;;;;23.83;3.63;;;2.10;99.90;;;;;;5055539;28;37353;-75
2022/02/26 00:55:07;;;;;;;17.77;4.33;;;2.00;99.90;;;;;;5056736;28;38786;-75
2022/02/26 00:57:33;;;;;;;18.67;3.43;;;1.80;99.90;;;;;;5057591;28;39728;-76
2022/02/26 01:00:04;;;;;;;14.53;3.23;;;1.70;99.90;;;;;;5049204;28;39519;-76
2022/02/26 01:02:30;;;;;;;19.17;3.97;;;1.50;99.90;;;;;;5060003;28;47149;-75
2022/02/26 01:04:56;;;;;;;15.30;4.00;;;1.40;99.90;;;;;;5060240;28;39547;-75
2022/02/26 01:07:22;;;;;;;10.43;2.73;;;1.30;99.90;;;;;;5057106;28;38510;-75
2022/02/26 01:09:49;;;;;;;13.57;3.20;;;1.20;99.90;;;;;;5057442;28;38072;-75
2022/02/26 01:12:15;;;;;;;13.13;2.73;;;1.20;99.90;;;;;;5050898;28;38594;-76
2022/02/26 01:14:41;;;;;;;15.97;3.17;;;1.00;99.90;;;;;;5055238;28;36049;-75
2022/02/26 01:17:10;;;;;;;28.17;4.17;;;1.00;99.90;;;;;;5054754;28;39392;-75
2022/02/26 01:19:36;;;;;;;20.97;3.40;;;0.90;99.90;;;;;;5056654;28;38999;-75
2022/02/26 01:22:04;;;;;;;22.90;3.60;;;0.90;99.90;;;;;;5062733;28;38372;-75
2022/02/26 01:24:30;;;;;;;15.43;3.23;;;0.90;99.90;;;;;;5062676;28;38888;-76
2022/02/26 01:26:56;;;;;;;14.70;3.60;;;0.90;99.90;;;;;;5060826;28;38654;-75
2022/02/26 01:29:23;;;;;;;21.57;3.80;;;0.90;99.90;;;;;;5061018;28;40531;-76
2022/02/26 01:31:49;;;;;;;17.80;3.47;;;0.90;99.90;;;;;;5058068;28;37955;-78
2022/02/26 01:34:15;;;;;;;13.43;4.17;;;0.80;99.90;;;;;;5059694;28;39370;-76
2022/02/26 01:36:42;;;;;;;13.37;3.00;;;0.80;99.90;;;;;;5058746;28;38703;-78
2022/02/26 01:39:10;;;;;;;16.97;3.23;;;0.70;99.90;;;;;;5056451;28;38512;-77
2022/02/26 01:41:38;;;;;;;14.07;4.27;;;0.70;99.90;;;;;;5060219;28;37079;-77
2022/02/26 01:44:05;;;;;;;14.33;3.90;;;0.60;99.90;;;;;;5061401;28;38004;-77
2022/02/26 01:46:35;;;;;;;18.13;3.67;;;0.60;99.90;;;;;;5063890;28;38364;-77
2022/02/26 01:49:01;;;;;;;19.27;4.57;;;0.50;99.90;;;;;;5065553;28;42020;-77
2022/02/26 01:51:27;;;;;;;14.43;4.53;;;0.40;99.90;;;;;;5059857;28;47422;-77
2022/02/26 01:53:53;;;;;;;21.77;4.60;;;0.40;99.90;;;;;;5059230;28;38790;-77
2022/02/26 01:56:19;;;;;;;15.43;4.00;;;0.40;99.90;;;;;;5058596;28;38759;-78
2022/02/26 01:58:49;;;;;;;19.67;5.27;;;0.50;99.90;;;;;;5057773;28;38947;-77
2022/02/26 02:01:15;;;;;;;25.87;5.00;;;0.50;99.90;;;;;;5044617;28;38161;-77
2022/02/26 02:03:41;;;;;;;23.43;6.67;;;0.50;99.90;;;;;;5033310;28;40277;-77
2022/02/26 02:06:10;;;;;;;14.87;4.70;;;0.50;99.90;;;;;;5039651;28;38579;-78
2022/02/26 02:08:37;;;;;;;21.93;4.90;;;0.50;99.90;;;;;;5031637;28;37824;-77
2022/02/26 02:11:03;;;;;;;30.70;6.03;;;0.60;99.90;;;;;;5019869;28;36332;-77
2022/02/26 02:13:29;;;;;;;15.63;4.33;;;0.70;99.90;;;;;;5038424;28;38860;-77
2022/02/26 02:15:55;;;;;;;19.93;4.90;;;0.70;99.90;;;;;;5036326;28;38627;-77
2022/02/26 02:18:22;;;;;;;21.63;5.20;;;0.60;99.90;;;;;;5034224;28;37037;-77
2022/02/26 02:20:49;;;;;;;22.77;6.63;;;0.40;99.90;;;;;;5037281;28;37888;-77
2022/02/26 02:23:15;;;;;;;19.13;4.73;;;0.30;99.90;;;;;;5017603;28;38774;-77
2022/02/26 02:25:41;;;;;;;32.80;6.83;;;0.40;99.90;;;;;;5039716;28;39133;-77
2022/02/26 02:28:09;;;;;;;28.67;8.40;;;0.20;99.90;;;;;;5026285;28;37042;-77
2022/02/26 02:30:36;;;;;;;24.33;7.10;;;0.20;99.90;;;;;;5041551;28;36728;-77
2022/02/26 02:33:02;;;;;;;26.17;7.13;;;0.30;99.90;;;;;;5039777;28;38985;-77
2022/02/26 02:35:30;;;;;;;26.43;7.60;;;0.30;99.90;;;;;;5021981;28;37439;-77
2022/02/26 02:37:58;;;;;;;22.03;6.67;;;0.40;99.90;;;;;;5040439;28;37885;-77
2022/02/26 02:40:25;;;;;;;25.67;8.37;;;0.60;99.90;;;;;;5020071;28;39145;-77
2022/02/26 02:42:54;;;;;;;20.87;7.23;;;0.50;99.90;;;;;;5029618;28;39898;-77
2022/02/26 02:45:22;;;;;;;25.73;8.60;;;0.50;99.90;;;;;;5024473;28;37764;-77
2022/02/26 02:47:49;;;;;;;29.77;8.30;;;0.50;99.90;;;;;;5033036;28;39526;-77
2022/02/26 02:50:16;;;;;;;21.73;7.13;;;0.50;99.90;;;;;;5040174;28;37890;-77
2022/02/26 02:52:51;;;;;;;23.30;7.13;;;0.50;99.90;;;;;;5021949;28;37809;-78
2022/02/26 02:55:20;;;;;;;20.77;6.57;;;0.50;99.90;;;;;;5021773;28;38406;-77
2022/02/26 02:57:47;;;;;;;27.73;8.40;;;0.50;99.90;;;;;;5040045;28;38036;-77
2022/02/26 03:00:15;;;;;;;24.17;7.60;;;0.50;99.90;;;;;;5033723;28;36535;-77
2022/02/26 03:02:42;;;;;;;22.77;8.10;;;0.50;99.90;;;;;;5021749;28;38589;-77
2022/02/26 03:05:09;;;;;;;30.50;8.33;;;0.50;99.90;;;;;;5019961;28;38667;-77
2022/02/26 03:07:36;;;;;;;23.67;7.30;;;0.50;99.90;;;;;;5021161;28;36846;-77
2022/02/26 03:10:05;;;;;;;29.00;8.60;;;0.60;99.90;;;;;;5020962;28;37583;-77
2022/02/26 03:12:31;;;;;;;24.23;7.60;;;0.50;99.90;;;;;;5033687;28;39955;-77
2022/02/26 03:14:58;;;;;;;29.30;6.87;;;0.50;99.90;;;;;;5038360;28;39154;-77
2022/02/26 03:17:24;;;;;;;23.73;6.57;;;0.50;99.90;;;;;;5036453;28;38897;-77
2022/02/26 03:19:50;;;;;;;30.17;9.57;;;0.60;99.90;;;;;;5018536;28;37871;-77
2022/02/26 03:22:20;;;;;;;23.07;7.10;;;0.60;99.90;;;;;;5038573;28;40443;-78
2022/02/26 03:24:47;;;;;;;28.77;8.30;;;0.60;99.90;;;;;;5026961;28;39164;-77
2022/02/26 03:27:13;;;;;;;34.10;9.30;;;0.70;99.90;;;;;;5044330;28;39441;-76
2022/02/26 03:29:43;;;;;;;34.30;8.57;;;0.60;99.90;;;;;;5034093;28;36755;-77
2022/02/26 03:32:10;;;;;;;33.37;8.57;;;0.50;99.90;;;;;;5019209;28;38589;-77
2022/02/26 03:34:37;;;;;;;24.33;6.63;;;0.50;99.90;;;;;;5039196;28;39601;-77
2022/02/26 03:37:05;;;;;;;29.17;7.67;;;0.60;99.90;;;;;;5011726;28;38658;-77
2022/02/26 03:39:31;;;;;;;19.03;6.53;;;0.50;99.90;;;;;;5027934;28;36047;-77
2022/02/26 03:42:08;;;;;;;17.87;6.73;;;0.40;99.90;;;;;;5003076;28;39689;-77
2022/02/26 03:44:35;;;;;;;27.30;8.17;;;0.40;99.90;;;;;;5012912;28;47356;-77
2022/02/26 03:47:02;;;;;;;29.87;9.27;;;0.40;99.90;;;;;;5018368;28;36999;-77
2022/02/26 03:49:29;;;;;;;37.00;10.33;;;0.50;99.90;;;;;;5038760;28;37397;-77
2022/02/26 03:51:55;;;;;;;32.00;8.77;;;0.60;99.90;;;;;;5019960;28;39716;-76
2022/02/26 03:54:21;;;;;;;25.13;8.90;;;0.70;99.90;;;;;;5018518;28;39655;-77
2022/02/26 03:56:48;;;;;;;29.37;7.90;;;0.70;99.90;;;;;;5039568;28;37767;-77
2022/02/26 03:59:14;;;;;;;23.97;9.17;;;0.50;99.90;;;;;;5038313;28;35571;-76
2022/02/26 04:01:43;;;;;;;17.97;6.47;;;0.40;99.90;;;;;;5037572;28;39946;-76
2022/02/26 04:04:11;;;;;;;28.63;7.40;;;0.30;99.90;;;;;;5027511;28;38049;-76
2022/02/26 04:06:41;;;;;;;22.30;6.83;;;0.10;99.90;;;;;;5037663;28;38026;-76
2022/02/26 04:09:11;;;;;;;45.13;9.73;;;0.00;99.90;;;;;;5008971;28;37791;-76
2022/02/26 04:11:37;;;;;;;19.17;6.30;;;0.00;99.90;;;;;;5016342;28;40412;-76
2022/02/26 04:14:04;;;;;;;28.90;7.83;;;-0.10;99.90;;;;;;5009238;28;39875;-77
2022/02/26 04:16:30;;;;;;;25.00;6.87;;;-0.10;99.90;;;;;;5020971;28;38740;-76
2022/02/26 04:18:56;;;;;;;22.90;7.43;;;-0.10;99.90;;;;;;5035486;28;35931;-76
2022/02/26 04:21:23;;;;;;;21.63;7.00;;;-0.10;99.90;;;;;;5037571;28;38928;-78
2022/02/26 04:23:49;;;;;;;23.97;6.43;;;-0.20;99.90;;;;;;5019157;28;39038;-78
2022/02/26 04:26:16;;;;;;;21.40;6.53;;;-0.20;99.90;;;;;;5037339;28;38262;-78
2022/02/26 04:28:42;;;;;;;20.60;6.60;;;-0.30;99.90;;;;;;5025766;28;38173;-78
2022/02/26 04:31:08;;;;;;;21.10;6.50;;;-0.30;99.90;;;;;;5013544;28;40296;-78
2022/02/26 04:33:34;;;;;;;18.60;6.50;;;-0.30;99.90;;;;;;5038654;28;38437;-78
2022/02/26 04:36:01;;;;;;;17.97;6.57;;;-0.40;99.90;;;;;;5020143;28;39792;-78
2022/02/26 04:38:29;;;;;;;24.77;7.07;;;-0.40;99.90;;;;;;5038277;28;47068;-79
2022/02/26 04:41:00;;;;;;;21.97;6.63;;;-0.50;99.90;;;;;;5017340;28;39366;-77
2022/02/26 04:43:28;;;;;;;27.23;7.63;;;-0.50;99.90;;;;;;5040803;28;40344;-79
2022/02/26 04:45:54;;;;;;;23.60;6.53;;;-0.40;99.90;;;;;;5025170;28;39334;-78
2022/02/26 04:48:20;;;;;;;15.90;6.67;;;-0.40;99.90;;;;;;5026479;28;38341;-78
2022/02/26 04:50:47;;;;;;;24.33;7.23;;;-0.40;99.90;;;;;;5023174;28;40035;-78
2022/02/26 04:53:13;;;;;;;19.00;6.77;;;-0.40;99.90;;;;;;5042251;28;38335;-78
2022/02/26 04:55:39;;;;;;;17.40;6.33;;;-0.50;99.90;;;;;;5042971;28;38721;-78
2022/02/26 04:58:05;;;;;;;20.87;6.07;;;-0.50;99.90;;;;;;5024698;28;38168;-78
2022/02/26 05:00:31;;;;;;;20.57;6.43;;;-0.50;99.90;;;;;;5048456;28;38766;-78
2022/02/26 05:02:57;;;;;;;26.20;7.97;;;-0.50;99.90;;;;;;5067223;28;38077;-78
2022/02/26 05:05:23;;;;;;;24.17;7.37;;;-0.50;99.90;;;;;;5062795;28;37943;-78
2022/02/26 05:07:49;;;;;;;25.73;8.10;;;-0.60;99.90;;;;;;5062865;28;38427;-78
2022/02/26 05:10:16;;;;;;;17.20;6.47;;;-0.70;99.90;;;;;;5065964;28;39421;-78
2022/02/26 05:12:42;;;;;;;23.27;7.77;;;-0.70;99.90;;;;;;5059830;28;40160;-78
2022/02/26 05:15:12;;;;;;;24.77;7.43;;;-0.70;99.90;;;;;;5064513;28;39872;-78
2022/02/26 05:17:39;;;;;;;21.90;6.97;;;-0.70;99.90;;;;;;5056832;28;36663;-78
2022/02/26 05:20:07;;;;;;;19.77;7.37;;;-0.70;99.90;;;;;;5040194;28;40047;-78
2022/02/26 05:22:35;;;;;;;18.17;5.90;;;-0.80;99.90;;;;;;5048363;28;39327;-78
2022/02/26 05:25:06;;;;;;;23.13;7.37;;;-0.80;99.90;;;;;;5066375;28;38444;-78
2022/02/26 05:27:32;;;;;;;17.60;6.30;;;-0.70;99.90;;;;;;5069584;28;48504;-78
2022/02/26 05:29:58;;;;;;;19.23;6.67;;;-0.60;99.90;;;;;;5064947;28;37967;-78
2022/02/26 05:32:24;;;;;;;15.70;6.80;;;-0.50;99.90;;;;;;5056594;28;39098;-78
2022/02/26 05:34:51;;;;;;;25.30;7.10;;;-0.60;99.90;;;;;;5070376;28;39528;-78
2022/02/26 05:37:18;;;;;;;19.23;7.37;;;-0.60;99.90;;;;;;5067919;28;37190;-78
2022/02/26 05:39:45;;;;;;;15.47;6.47;;;-0.70;99.90;;;;;;5059831;28;39593;-78
2022/02/26 05:42:11;;;;;;;27.63;8.33;;;-0.70;99.90;;;;;;5058109;28;39892;-78
2022/02/26 05:44:37;;;;;;;21.67;6.87;;;-0.80;99.90;;;;;;5060842;28;38138;-78
2022/02/26 05:47:04;;;;;;;15.67;7.50;;;-0.80;99.90;;;;;;5065632;28;37777;-78
2022/02/26 05:49:30;;;;;;;20.47;7.30;;;-0.90;99.90;;;;;;5059098;28;39701;-78
2022/02/26 05:51:56;;;;;;;27.27;9.73;;;-0.80;99.90;;;;;;5061506;28;39324;-78
2022/02/26 05:54:22;;;;;;;24.87;7.30;;;-0.80;99.90;;;;;;5060205;28;37700;-78
2022/02/26 05:56:48;;;;;;;19.77;8.23;;;-0.80;99.90;;;;;;5061207;28;37882;-78
2022/02/26 05:59:17;;;;;;;20.17;8.50;;;-0.80;99.90;;;;;;5060161;28;39568;-78
2022/02/26 06:01:44;;;;;;;24.00;8.20;;;-0.80;99.90;;;;;;5043386;28;38872;-78
2022/02/26 06:04:10;;;;;;;20.67;7.10;;;-0.80;99.90;;;;;;5040712;28;37153;-78
2022/02/26 06:06:36;;;;;;;20.70;7.70;;;-0.90;99.90;;;;;;5025519;28;37824;-78
2022/02/26 06:09:02;;;;;;;22.37;8.13;;;-0.90;99.90;;;;;;5036937;28;38892;-78
2022/02/26 06:11:29;;;;;;;24.00;7.70;;;-0.90;99.90;;;;;;5021028;28;40763;-78
2022/02/26 06:13:55;;;;;;;20.27;11.43;;;-0.90;99.90;;;;;;5020049;28;39997;-79
2022/02/26 06:16:21;;;;;;;22.40;8.20;;;-0.90;99.90;;;;;;5033182;28;38131;-78
2022/02/26 06:18:47;;;;;;;21.07;8.80;;;-0.90;99.90;;;;;;5012779;28;38358;-78
2022/02/26 06:21:13;;;;;;;18.37;7.83;;;-1.00;99.90;;;;;;5022280;28;39600;-78
2022/02/26 06:23:39;;;;;;;22.27;8.70;;;-1.10;99.90;;;;;;5024075;28;36610;-78
2022/02/26 06:26:05;;;;;;;21.33;9.50;;;-1.10;99.90;;;;;;5030734;28;36976;-78
2022/02/26 06:28:32;;;;;;;22.07;9.00;;;-1.20;99.90;;;;;;5039577;28;38806;-77
2022/02/26 06:30:58;;;;;;;22.93;9.53;;;-1.20;99.90;;;;;;5040317;28;38573;-77
2022/02/26 06:33:24;;;;;;;21.90;8.70;;;-1.20;99.90;;;;;;5033113;28;38273;-77
2022/02/26 06:35:50;;;;;;;24.07;8.80;;;-1.20;99.90;;;;;;5023554;28;38980;-77
2022/02/26 06:38:16;;;;;;;16.50;8.77;;;-1.20;99.90;;;;;;5042356;28;39239;-77
2022/02/26 06:40:42;;;;;;;18.43;8.67;;;-1.30;99.90;;;;;;5040944;28;38581;-77
2022/02/26 06:43:08;;;;;;;22.77;9.17;;;-1.30;99.90;;;;;;5012175;28;39778;-77
2022/02/26 06:45:34;;;;;;;19.47;9.70;;;-1.20;99.90;;;;;;5022338;28;39031;-77
2022/02/26 06:48:03;;;;;;;20.20;9.53;;;-1.20;99.90;;;;;;5041182;28;38716;-78
2022/02/26 06:50:30;;;;;;;19.47;10.33;;;-1.20;99.90;;;;;;5017447;28;47223;-77
2022/02/26 06:52:59;;;;;;;20.10;10.30;;;-1.20;99.90;;;;;;5033161;28;38789;-77
2022/02/26 06:55:25;;;;;;;21.17;11.87;;;-1.10;99.90;;;;;;5019413;28;38022;-77
2022/02/26 06:57:51;;;;;;;20.43;11.03;;;-1.00;99.90;;;;;;5016447;28;38316;-77
2022/02/26 07:00:18;;;;;;;26.27;11.90;;;-0.90;99.90;;;;;;5038889;28;39266;-78
2022/02/26 07:02:44;;;;;;;37.43;15.90;;;-0.80;99.90;;;;;;5038328;28;38400;-77
2022/02/26 07:05:10;;;;;;;38.30;16.00;;;-0.70;99.90;;;;;;5040546;28;37414;-77
2022/02/26 07:07:37;;;;;;;33.17;16.27;;;-0.60;99.90;;;;;;5036660;28;38851;-77
2022/02/26 07:10:04;;;;;;;50.00;17.57;;;-0.50;99.90;;;;;;5019153;28;38820;-77
2022/02/26 07:12:30;;;;;;;31.13;17.13;;;-0.50;99.90;;;;;;5023080;28;38687;-77
2022/02/26 07:14:56;;;;;;;30.40;17.73;;;-0.40;99.90;;;;;;5019470;28;38178;-78
2022/02/26 07:17:22;;;;;;;35.73;18.40;;;-0.30;99.90;;;;;;5016553;28;39156;-77
2022/02/26 07:19:49;;;;;;;56.60;20.73;;;-0.30;99.90;;;;;;5025274;28;39480;-77
2022/02/26 07:22:15;;;;;;;28.83;16.37;;;-0.20;99.90;;;;;;5020721;28;39386;-77
2022/02/26 07:24:41;;;;;;;32.30;18.10;;;-0.20;99.90;;;;;;5045368;28;37215;-77
2022/02/26 07:27:07;;;;;;;30.83;18.67;;;-0.20;99.90;;;;;;5040320;28;38936;-77
2022/02/26 07:29:33;;;;;;;25.13;15.27;;;-0.10;99.90;;;;;;5027558;28;40170;-77
2022/02/26 07:31:59;;;;;;;45.73;20.70;;;-0.10;99.90;;;;;;5045862;28;39485;-79
2022/02/26 07:34:26;;;;;;;28.70;17.60;;;-0.10;99.90;;;;;;5044048;28;37334;-77
2022/02/26 07:36:52;;;;;;;31.17;18.50;;;0.00;99.90;;;;;;5044888;28;38871;-77
2022/02/26 07:39:18;;;;;;;29.33;17.77;;;0.00;99.90;;;;;;5031594;28;38488;-78
2022/02/26 07:41:45;;;;;;;28.83;20.33;;;0.10;99.90;;;;;;5036030;28;36842;-77
2022/02/26 07:44:11;;;;;;;52.60;18.73;;;0.20;99.90;;;;;;5038237;28;36751;-78
2022/02/26 07:46:37;;;;;;;18.80;14.37;;;0.20;99.90;;;;;;5037738;28;39386;-77
2022/02/26 07:49:03;;;;;;;35.67;17.87;;;0.30;99.90;;;;;;5043231;28;38375;-77
2022/02/26 07:51:30;;;;;;;41.93;18.60;;;0.40;99.90;;;;;;5033210;28;36404;-77
2022/02/26 07:53:56;;;;;;;28.47;20.73;;;0.50;99.90;;;;;;5024015;28;37773;-77
2022/02/26 07:56:22;;;;;;;50.33;23.63;;;0.50;99.90;;;;;;5029106;28;37482;-77
2022/02/26 07:58:51;;;;;;;31.73;18.60;;;0.60;99.90;;;;;;5026141;28;37217;-77
2022/02/26 08:01:17;;;;;;;56.03;23.93;;;0.60;99.90;;;;;;5048001;28;37387;-77
2022/02/26 08:03:44;;;;;;;22.93;17.10;;;0.70;99.90;;;;;;5065107;28;37592;-77
2022/02/26 08:06:10;;;;;;;18.20;15.83;;;0.70;99.90;;;;;;5059987;28;39574;-77
2022/02/26 08:08:36;;;;;;;36.83;22.77;;;0.70;99.90;;;;;;5061498;28;37559;-77
2022/02/26 08:11:02;;;;;;;19.57;15.90;;;0.80;99.90;;;;;;5062252;28;38054;-77
2022/02/26 08:13:29;;;;;;;44.87;26.37;;;0.80;99.90;;;;;;5054637;28;37815;-77
2022/02/26 08:15:55;;;;;;;23.80;17.80;;;0.90;99.90;;;;;;5067734;28;37841;-75
2022/02/26 08:18:21;;;;;;;32.20;23.23;;;0.90;99.90;;;;;;5070187;28;37422;-78
2022/02/26 08:20:47;;;;;;;38.57;26.30;;;0.90;99.90;;;;;;5062105;28;38223;-76
2022/02/26 08:23:13;;;;;;;37.40;22.57;;;0.90;99.90;;;;;;5057802;28;38640;-75
2022/02/26 08:25:39;;;;;;;41.47;28.57;;;1.00;99.90;;;;;;5059477;28;39828;-75
2022/02/26 08:28:05;;;;;;;47.70;31.03;;;1.10;99.90;;;;;;5058935;27;38436;-76
2022/02/26 08:30:31;;;;;;;38.27;24.53;;;1.20;99.90;;;;;;5056317;28;38130;-75
2022/02/26 08:32:58;;;;;;;42.50;27.17;;;1.20;99.90;;;;;;5060783;28;38093;-76
2022/02/26 08:35:25;;;;;;;42.83;27.40;;;1.20;99.90;;;;;;5062018;28;38909;-76
2022/02/26 08:37:51;;;;;;;68.43;39.07;;;1.50;99.90;;;;;;5072207;28;39010;-75
2022/02/26 08:40:17;;;;;;;46.33;31.90;;;1.60;99.90;;;;;;5063590;28;38984;-76
2022/02/26 08:42:44;;;;;;;70.07;41.03;;;1.90;99.90;;;;;;5062388;28;38155;-75
2022/02/26 08:45:11;;;;;;;59.80;37.73;;;2.20;99.90;;;;;;5062011;28;39645;-75
2022/02/26 08:47:38;;;;;;;76.00;42.30;;;2.50;99.90;;;;;;5065288;28;39267;-76
2022/02/26 08:50:08;;;;;;;82.17;41.10;;;2.60;99.90;;;;;;5057150;28;38198;-76
2022/02/26 08:52:34;;;;;;;81.17;44.10;;;2.90;99.90;;;;;;5062064;28;39186;-76
2022/02/26 08:55:00;;;;;;;72.00;44.40;;;2.90;99.90;;;;;;5059952;28;38405;-76
2022/02/26 08:57:26;;;;;;;77.77;43.20;;;3.00;99.90;;;;;;5064562;28;40298;-76
2022/02/26 08:59:52;;;;;;;74.27;39.37;;;3.10;99.90;;;;;;5063237;28;38285;-77
2022/02/26 09:02:18;;;;;;;78.10;40.23;;;3.10;99.90;;;;;;5058435;28;37311;-76
2022/02/26 09:04:45;;;;;;;78.63;39.20;;;3.20;99.90;;;;;;5067766;28;39831;-76
2022/02/26 09:07:11;;;;;;;67.40;35.37;;;3.30;99.90;;;;;;5061598;28;38264;-76
2022/02/26 09:09:37;;;;;;;58.80;33.23;;;3.50;99.90;;;;;;5065417;28;37889;-76
2022/02/26 09:12:04;;;;;;;69.57;35.43;;;3.40;99.90;;;;;;5057341;28;38097;-78
2022/02/26 09:14:30;;;;;;;60.57;33.00;;;3.50;99.90;;;;;;5043934;28;39404;-78
2022/02/26 09:16:56;;;;;;;60.03;32.33;;;3.70;99.90;;;;;;5061741;28;38570;-76
2022/02/26 09:19:22;;;;;;;60.60;33.97;;;3.70;99.90;;;;;;5057383;28;37830;-76
2022/02/26 09:21:49;;;;;;;62.70;30.07;;;3.80;99.90;;;;;;5040351;28;39858;-76
2022/02/26 09:24:15;;;;;;;54.47;27.73;;;3.90;99.90;;;;;;5071797;28;39070;-76
2022/02/26 09:26:44;;;;;;;51.17;27.07;;;4.00;99.90;;;;;;5059947;28;38224;-77
2022/02/26 09:29:10;;;;;;;62.93;26.70;;;4.10;99.90;;;;;;5064534;28;37717;-76
2022/02/26 09:31:40;;;;;;;60.00;26.50;;;4.30;99.90;;;;;;5069529;28;37047;-76
2022/02/26 09:34:09;;;;;;;46.30;25.20;;;4.40;99.90;;;;;;5036685;28;38029;-76
2022/02/26 09:36:36;;;;;;;43.80;24.27;;;4.50;99.90;;;;;;5060166;28;38514;-77
2022/02/26 09:39:03;;;;;;;44.97;21.60;;;4.70;99.90;;;;;;5045582;28;38835;-77
2022/02/26 09:41:29;;;;;;;41.67;21.23;;;4.80;99.90;;;;;;5045700;28;47575;-76
2022/02/26 09:43:55;;;;;;;46.50;19.07;;;5.00;99.90;;;;;;5047749;28;39350;-76
2022/02/26 09:46:22;;;;;;;47.60;20.17;;;5.10;99.90;;;;;;5047947;28;39066;-78
2022/02/26 09:48:48;;;;;;;42.10;18.57;;;5.30;99.90;;;;;;5031465;28;39362;-77
2022/02/26 09:51:15;;;;;;;33.17;17.03;;;5.40;99.90;;;;;;5070160;28;38904;-77
2022/02/26 09:53:42;;;;;;;37.57;16.83;;;5.50;99.90;;;;;;5056369;28;38172;-77
2022/02/26 09:56:08;;;;;;;39.37;17.63;;;5.60;99.90;;;;;;5061221;28;39475;-77
2022/02/26 09:58:35;;;;;;;38.43;16.20;;;5.70;99.90;;;;;;5071240;28;37784;-77
2022/02/26 10:01:01;;;;;;;36.70;16.77;;;5.80;99.90;;;;;;5053701;28;36575;-78
2022/02/26 10:03:33;;;;;;;35.83;14.07;;;6.00;99.90;;;;;;5065129;28;47111;-78
2022/02/26 10:06:09;;;;;;;31.83;12.45;;;6.00;99.90;;;;;;5062391;28;38728;-78
2022/02/26 10:08:38;;;;;;;41.23;12.17;;;6.10;99.90;;;;;;5070067;28;48711;-78
2022/02/26 10:11:06;;;;;;;34.37;12.67;;;6.40;99.90;;;;;;5064219;28;38165;-78
2022/02/26 10:13:44;;;;;;;28.13;11.40;;;6.50;99.90;;;;;;5065045;28;39717;-81
2022/02/26 10:16:10;;;;;;;34.17;12.03;;;6.60;99.90;;;;;;5065360;28;38761;-80
2022/02/26 10:18:37;;;;;;;32.87;10.43;;;6.70;99.90;;;;;;5069103;28;38182;-82
2022/02/26 10:21:04;;;;;;;30.30;9.20;;;6.70;99.90;;;;;;5070747;28;37164;-78
2022/02/26 10:23:30;;;;;;;27.60;9.93;;;6.80;99.90;;;;;;5067699;28;37846;-78
2022/02/26 10:26:08;;;;;;;17.27;8.30;;;6.80;99.90;;;;;;5070074;28;38461;-78
2022/02/26 10:28:40;;;;;;;25.27;8.40;;;6.90;99.90;;;;;;5067419;28;47340;-81
2022/02/26 10:31:07;;;;;;;16.27;7.07;;;7.10;99.90;;;;;;5066992;28;37090;-81
2022/02/26 10:33:34;;;;;;;23.93;7.70;;;7.20;99.90;;;;;;5067166;28;40676;-81
2022/02/26 10:36:06;;;;;;;23.90;7.70;;;7.20;99.90;;;;;;5068699;28;38367;-81
2022/02/26 10:38:34;;;;;;;19.13;7.67;;;7.30;99.90;;;;;;5071568;28;47416;-78
2022/02/26 10:41:04;;;;;;;22.37;8.13;;;7.30;99.90;;;;;;5067934;28;38213;-78
2022/02/26 10:43:46;;;;;;;17.77;6.57;;;7.30;99.90;;;;;;5068235;28;48546;-79
2022/02/26 10:46:32;;;;;;;25.40;7.23;;;7.30;99.90;;;;;;5065687;28;40000;-78
2022/02/26 10:49:12;;;;;;;16.73;5.73;;;7.40;99.90;;;;;;5045952;28;39244;-81
2022/02/26 10:51:41;;;;;;;22.03;4.40;;;7.60;99.90;;;;;;5056510;28;48066;-81
2022/02/26 10:54:23;;;;;;;17.47;5.37;;;7.70;99.90;;;;;;5068590;28;37703;-80
2022/02/26 10:56:50;;;;;;;16.10;4.73;;;7.70;99.90;;;;;;5069658;28;38224;-82
2022/02/26 10:59:30;;;;;;;19.27;5.27;;;7.80;99.90;;;;;;5070031;28;39234;-80
2022/02/26 11:02:04;;;;;;;24.30;5.77;;;7.80;99.90;;;;;;5060759;28;37624;-81
2022/02/26 11:04:31;;;;;;;17.23;4.93;;;8.00;99.90;;;;;;5067891;28;48767;-81
2022/02/26 11:06:58;;;;;;;14.97;4.13;;;8.00;99.90;;;;;;5069278;28;39454;-80
2022/02/26 11:09:25;;;;;;;15.10;3.93;;;8.00;99.90;;;;;;5065350;28;37338;-81
2022/02/26 11:11:51;;;;;;;14.10;3.10;;;8.00;99.90;;;;;;5061807;28;37885;-81
2022/02/26 11:14:21;;;;;;;10.03;3.70;;;8.00;99.90;;;;;;5048937;28;38309;-80
2022/02/26 11:16:56;;;;;;;19.63;4.30;;;8.10;99.90;;;;;;5051567;28;38044;-81
2022/02/26 11:19:25;;;;;;;18.10;4.57;;;8.10;99.90;;;;;;5067490;28;38735;-81
2022/02/26 11:21:52;;;;;;;16.23;4.40;;;8.20;99.90;;;;;;5065783;28;39086;-81
2022/02/26 11:24:19;;;;;;;16.23;4.77;;;8.40;99.90;;;;;;5069341;28;39877;-81
2022/02/26 11:26:47;;;;;;;17.63;4.87;;;8.40;99.90;;;;;;5067311;28;38272;-80
2022/02/26 11:29:16;;;;;;;14.30;4.70;;;8.40;99.90;;;;;;5053396;28;39529;-81
2022/02/26 11:31:47;;;;;;;14.27;5.23;;;8.60;99.90;;;;;;5069264;28;37587;-81
2022/02/26 11:34:20;;;;;;;15.97;5.97;;;8.50;99.90;;;;;;5066260;28;37618;-80
2022/02/26 11:36:47;;;;;;;18.70;7.10;;;8.40;99.90;;;;;;5066369;28;38548;-80
2022/02/26 11:39:28;;;;;;;17.80;7.23;;;8.40;99.90;;;;;;5058286;28;38228;-79
2022/02/26 11:42:23;;;;;;;22.17;7.30;;;8.40;99.90;;;;;;5068169;28;37948;-80
2022/02/26 11:45:00;;;;;;;20.00;6.63;;;8.50;99.90;;;;;;5062199;28;47997;-81
2022/02/26 11:47:59;;;;;;;20.97;6.53;;;8.50;99.90;;;;;;5064779;28;40410;-81
2022/02/26 11:50:40;;;;;;;18.60;5.70;;;8.60;99.90;;;;;;5066419;28;38880;-80
2022/02/26 11:53:20;;;;;;;14.07;4.83;;;8.60;99.90;;;;;;5062451;28;38261;-82
2022/02/26 11:55:47;;;;;;;17.50;4.83;;;8.60;99.90;;;;;;5055447;28;38926;-80
2022/02/26 11:58:16;;;;;;;18.17;5.30;;;8.70;99.90;;;;;;5055701;28;39219;-79
2022/02/26 12:00:51;;;;;;;16.33;6.00;;;8.80;99.90;;;;;;5063431;28;40769;-79
2022/02/26 12:03:26;;;;;;;21.03;7.00;;;9.00;99.90;;;;;;5062475;28;39288;-80
2022/02/26 12:05:55;;;;;;;15.30;5.43;;;9.10;99.90;;;;;;5061204;28;38877;-80
2022/02/26 12:08:39;;;;;;;22.13;5.50;;;9.10;99.90;;;;;;5067428;28;38700;-81
2022/02/26 12:11:09;;;;;;;17.70;5.37;;;9.00;99.90;;;;;;5070318;28;37753;-79
2022/02/26 12:13:40;;;;;;;16.00;5.80;;;8.80;99.90;;;;;;5062019;28;38466;-79
2022/02/26 12:16:16;;;;;;;21.70;6.47;;;9.10;99.90;;;;;;5063000;28;37511;-79
2022/02/26 12:18:45;;;;;;;20.90;5.57;;;9.20;99.90;;;;;;5065624;28;39167;-80
2022/02/26 12:21:14;;;;;;;20.80;6.00;;;9.00;99.90;;;;;;5066330;28;38849;-80
2022/02/26 12:24:00;;;;;;;20.37;6.50;;;9.20;99.90;;;;;;5066638;28;37757;-80
2022/02/26 12:26:58;;;;;;;19.83;5.63;;;9.20;99.90;;;;;;5047759;28;39488;-78
2022/02/26 12:29:39;;;;;;;18.70;5.53;;;9.40;99.90;;;;;;5057236;28;39275;-78
2022/02/26 12:32:17;;;;;;;26.43;5.70;;;9.50;99.90;;;;;;5064370;28;38841;-78
2022/02/26 12:35:09;;;;;;;18.97;5.73;;;9.20;99.90;;;;;;5059506;28;36850;-78
2022/02/26 12:37:37;;;;;;;19.60;5.90;;;9.00;99.90;;;;;;5062977;28;47003;-81
2022/02/26 12:40:20;;;;;;;22.07;6.00;;;8.90;99.90;;;;;;5055286;28;38209;-80
2022/02/26 12:42:49;;;;;;;15.50;5.50;;;8.90;99.90;;;;;;5058912;28;38819;-79
2022/02/26 12:45:19;;;;;;;13.93;5.83;;;9.00;99.90;;;;;;5061020;28;36033;-81